createdAt,value
2022-09-15T00:00:54.857Z,100164.19
2022-09-15T00:03:22.706Z,100159.28
2022-09-15T00:05:49.835Z,100162.53
2022-09-15T00:08:16.431Z,100155.97
2022-09-15T00:10:52.545Z,100158.19
2022-09-15T00:13:20.478Z,100162.53
2022-09-15T00:15:47.425Z,100165.03
2022-09-15T00:18:14.543Z,100157.63
2022-09-15T00:20:42.857Z,100162.00
2022-09-15T00:23:11.304Z,100155.97
2022-09-15T00:25:43.287Z,100151.56
2022-09-15T00:28:10.051Z,100146.09
2022-09-15T00:30:41.518Z,100142.53
2022-09-15T00:33:08.095Z,100140.06
2022-09-15T00:35:40.992Z,100146.66
2022-09-15T00:38:09.296Z,100141.16
2022-09-15T00:40:47.437Z,100147.72
2022-09-15T00:43:15.710Z,100144.72
2022-09-15T00:45:42.399Z,100143.34
2022-09-15T00:48:13.787Z,100132.16
2022-09-15T00:50:42.967Z,100133.22
2022-09-15T00:53:11.650Z,100135.69
2022-09-15T00:55:44.841Z,100137.34
2022-09-15T00:58:16.666Z,100141.44
2022-09-15T01:00:47.896Z,100138.97
2022-09-15T01:03:15.807Z,100138.41
2022-09-15T01:05:50.857Z,100132.13
2022-09-15T01:08:25.782Z,100144.69
2022-09-15T01:10:53.102Z,100133.50
2022-09-15T01:13:19.653Z,100136.75
2022-09-15T01:16:07.240Z,100131.84
2022-09-15T01:19:17.465Z,100130.22
2022-09-15T01:21:46.889Z,100135.69
2022-09-15T01:24:47.479Z,100134.31
2022-09-15T01:27:42.205Z,100136.78
2022-09-15T01:30:12.889Z,100135.41
2022-09-15T01:33:04.350Z,100141.72
2022-09-15T01:35:59.445Z,100141.19
2022-09-15T01:38:41.586Z,100137.06
2022-09-15T01:41:21.523Z,100140.09
2022-09-15T01:43:53.619Z,100133.78
2022-09-15T01:46:23.528Z,100138.72
2022-09-15T01:48:54.239Z,100129.66
2022-09-15T01:51:23.740Z,100129.94
2022-09-15T01:53:52.968Z,100133.53
2022-09-15T01:56:19.691Z,100136.25
2022-09-15T01:58:49.892Z,100132.16
2022-09-15T02:01:28.264Z,100130.22
2022-09-15T02:04:03.062Z,100141.75
2022-09-15T02:06:40.867Z,100145.56
2022-09-15T02:09:36.945Z,100159.78
2022-09-15T02:12:14.589Z,100155.44
2022-09-15T02:14:48.299Z,100155.44
2022-09-15T02:17:19.164Z,100157.91
2022-09-15T02:19:51.127Z,100156.81
2022-09-15T02:22:27.248Z,100152.16
2022-09-15T02:25:08.099Z,100154.59
2022-09-15T02:27:40.452Z,100159.81
2022-09-15T02:30:11.862Z,100162.00
2022-09-15T02:32:47.343Z,100167.22
2022-09-15T02:35:15.966Z,100164.19
2022-09-15T02:37:43.361Z,100158.19
2022-09-15T02:40:11.167Z,100163.09
2022-09-15T02:42:39.272Z,100146.09
2022-09-15T02:45:06.601Z,100148.03
2022-09-15T02:47:33.193Z,100152.13
2022-09-15T02:50:00.188Z,100141.16
2022-09-15T02:52:26.742Z,100141.97
2022-09-15T02:54:53.574Z,100143.91
2022-09-15T02:57:20.727Z,100147.72
2022-09-15T03:00:13.381Z,100156.47
2022-09-15T03:02:45.594Z,100169.06
2022-09-15T03:05:14.662Z,100167.44
2022-09-15T03:07:41.293Z,100169.91
2022-09-15T03:10:09.619Z,100159.28
2022-09-15T03:12:40.198Z,100172.66
2022-09-15T03:15:08.549Z,100162.00
2022-09-15T03:17:36.484Z,100154.06
2022-09-15T03:20:05.672Z,100169.13
2022-09-15T03:22:32.429Z,100167.19
2022-09-15T03:24:59.007Z,100156.22
2022-09-15T03:27:25.855Z,100163.88
2022-09-15T03:29:52.635Z,100165.25
2022-09-15T03:32:19.785Z,100158.97
2022-09-15T03:34:46.291Z,100160.59
2022-09-15T03:37:12.876Z,100157.56
2022-09-15T03:39:39.375Z,100160.31
2022-09-15T03:42:06.115Z,100164.13
2022-09-15T03:44:32.755Z,100166.34
2022-09-15T03:46:59.301Z,100165.50
2022-09-15T03:49:26.110Z,100152.91
2022-09-15T03:51:52.680Z,100158.13
2022-09-15T03:54:19.928Z,100151.53
2022-09-15T03:56:50.356Z,100159.22
2022-09-15T03:59:18.931Z,100164.69
2022-09-15T04:01:47.011Z,100163.31
2022-09-15T04:04:14.505Z,100152.09
2022-09-15T04:06:41.416Z,100149.06
2022-09-15T04:09:07.946Z,100143.88
2022-09-15T04:11:34.557Z,100154.84
2022-09-15T04:14:01.066Z,100138.13
2022-09-15T04:16:28.390Z,100147.16
2022-09-15T04:18:55.876Z,100139.47
2022-09-15T04:21:24.776Z,100144.41
2022-09-15T04:23:51.888Z,100141.69
2022-09-15T04:26:26.208Z,100141.94
2022-09-15T04:28:53.725Z,100143.56
2022-09-15T04:31:20.668Z,100141.66
2022-09-15T04:33:47.800Z,100146.59
2022-09-15T04:36:17.733Z,100142.75
2022-09-15T04:38:45.105Z,100142.47
2022-09-15T04:41:12.593Z,100141.94
2022-09-15T04:43:39.666Z,100139.72
2022-09-15T04:46:07.019Z,100135.06
2022-09-15T04:48:33.617Z,100142.47
2022-09-15T04:51:08.344Z,100141.09
2022-09-15T04:53:35.788Z,100135.63
2022-09-15T04:56:14.594Z,100129.59
2022-09-15T04:58:44.616Z,100131.81
2022-09-15T05:01:14.285Z,100127.38
2022-09-15T05:03:41.787Z,100132.06
2022-09-15T05:06:10.852Z,100135.88
2022-09-15T05:08:37.764Z,100143.81
2022-09-15T05:11:11.905Z,100141.34
2022-09-15T05:13:39.964Z,100143.53
2022-09-15T05:16:09.753Z,100137.78
2022-09-15T05:18:36.362Z,100132.31
2022-09-15T05:21:04.839Z,100131.50
2022-09-15T05:23:32.170Z,100137.25
2022-09-15T05:26:00.615Z,100133.41
2022-09-15T05:28:27.584Z,100137.75
2022-09-15T05:30:55.363Z,100129.75
2022-09-15T05:33:23.743Z,100132.22
2022-09-15T05:35:55.298Z,100137.69
2022-09-15T05:38:22.082Z,100131.69
2022-09-15T05:40:49.065Z,100139.91
2022-09-15T05:43:16.677Z,100139.66
2022-09-15T05:45:43.333Z,100142.41
2022-09-15T05:48:11.355Z,100151.19
2022-09-15T05:50:39.350Z,100143.53
2022-09-15T05:53:07.472Z,100137.78
2022-09-15T05:55:38.126Z,100142.97
2022-09-15T05:58:04.729Z,100148.16
2022-09-15T06:00:31.271Z,100144.59
2022-09-15T06:02:57.855Z,100159.63
2022-09-15T06:05:24.436Z,100165.69
2022-09-15T06:07:54.627Z,100159.72
2022-09-15T06:10:25.153Z,100154.28
2022-09-15T06:12:55.177Z,100170.72
2022-09-15T06:15:22.844Z,100183.31
2022-09-15T06:17:49.859Z,100179.50
2022-09-15T06:20:16.924Z,100170.22
2022-09-15T06:22:43.439Z,100168.25
2022-09-15T06:25:10.604Z,100161.38
2022-09-15T06:27:37.258Z,100163.03
2022-09-15T06:30:03.961Z,100164.09
2022-09-15T06:32:30.499Z,100165.47
2022-09-15T06:34:57.031Z,100168.22
2022-09-15T06:37:23.575Z,100173.19
2022-09-15T06:39:50.122Z,100165.25
2022-09-15T06:42:16.884Z,100168.84
2022-09-15T06:44:43.413Z,100174.88
2022-09-15T06:47:10.768Z,100160.94
2022-09-15T06:49:37.317Z,100165.56
2022-09-15T06:52:05.153Z,100169.69
2022-09-15T06:54:31.745Z,100168.59
2022-09-15T06:56:58.243Z,100167.78
2022-09-15T06:59:24.925Z,100170.50
2022-09-15T07:01:55.576Z,100175.13
2022-09-15T07:04:22.633Z,100177.00
2022-09-15T07:06:50.509Z,100186.34
2022-09-15T07:09:17.055Z,100182.25
2022-09-15T07:11:43.542Z,100193.75
2022-09-15T07:14:10.944Z,100194.63
2022-09-15T07:16:38.294Z,100194.59
2022-09-15T07:19:06.024Z,100196.25
2022-09-15T07:21:33.720Z,100188.00
2022-09-15T07:24:03.876Z,100191.59
2022-09-15T07:26:33.924Z,100185.88
2022-09-15T07:29:03.349Z,100181.19
2022-09-15T07:31:32.300Z,100195.44
2022-09-15T07:34:00.107Z,100194.09
2022-09-15T07:36:26.792Z,100200.41
2022-09-15T07:38:53.377Z,100206.69
2022-09-15T07:41:27.788Z,100203.94
2022-09-15T07:43:56.803Z,100207.50
2022-09-15T07:46:25.130Z,100211.03
2022-09-15T07:48:56.217Z,100217.63
2022-09-15T07:51:23.336Z,100206.31
2022-09-15T07:53:50.988Z,100209.25
2022-09-15T07:56:18.790Z,100217.19
2022-09-15T07:58:47.025Z,100219.59
2022-09-15T08:01:17.092Z,100211.84
2022-09-15T08:03:46.410Z,100229.13
2022-09-15T08:06:13.592Z,100227.47
2022-09-15T08:08:41.243Z,100229.69
2022-09-15T08:11:09.277Z,100226.31
2022-09-15T08:13:36.356Z,100223.44
2022-09-15T08:16:11.015Z,100224.81
2022-09-15T08:18:38.357Z,100216.72
2022-09-15T08:21:11.542Z,100222.66
2022-09-15T08:23:38.575Z,100219.72
2022-09-15T08:26:13.819Z,100230.44
2022-09-15T08:28:41.083Z,100230.22
2022-09-15T08:31:09.406Z,100230.56
2022-09-15T08:33:36.599Z,100225.38
2022-09-15T08:36:06.552Z,100225.09
2022-09-15T08:38:34.178Z,100239.50
2022-09-15T08:41:05.325Z,100239.97
2022-09-15T08:43:39.455Z,100236.50
2022-09-15T08:46:10.128Z,100237.00
2022-09-15T08:48:46.029Z,100236.94
2022-09-15T08:51:19.864Z,100238.22
2022-09-15T08:53:54.855Z,100221.59
2022-09-15T08:56:22.333Z,100225.09
2022-09-15T08:58:48.884Z,100224.72
2022-09-15T09:01:25.593Z,100233.16
2022-09-15T09:04:40.805Z,100237.94
2022-09-15T09:07:25.862Z,100245.19
2022-09-15T09:10:10.996Z,100251.47
2022-09-15T09:13:02.253Z,100263.94
2022-09-15T09:16:05.596Z,100271.00
2022-09-15T09:18:35.156Z,100273.50
2022-09-15T09:21:19.903Z,100281.56
2022-09-15T09:24:13.049Z,100272.00
2022-09-15T09:26:40.095Z,100279.66
2022-09-15T09:29:16.053Z,100275.47
2022-09-15T09:31:45.885Z,100276.34
2022-09-15T09:34:28.889Z,100272.81
2022-09-15T09:37:01.094Z,100269.53
2022-09-15T09:39:28.363Z,100266.47
2022-09-15T09:41:55.315Z,100268.53
2022-09-15T09:44:31.925Z,100249.53
2022-09-15T09:46:59.877Z,100265.47
2022-09-15T09:49:30.396Z,100256.31
2022-09-15T09:52:00.163Z,100261.25
2022-09-15T09:54:28.727Z,100276.09
2022-09-15T09:57:00.017Z,100264.78
2022-09-15T09:59:42.821Z,100273.38
2022-09-15T10:02:12.294Z,100270.22
2022-09-15T10:04:43.327Z,100273.63
2022-09-15T10:07:11.377Z,100269.28
2022-09-15T10:09:38.282Z,100270.78
2022-09-15T10:12:06.361Z,100276.22
2022-09-15T10:14:39.702Z,100272.47
2022-09-15T10:17:13.160Z,100259.94
2022-09-15T10:19:53.240Z,100261.06
2022-09-15T10:22:27.498Z,100264.22
2022-09-15T10:24:54.410Z,100262.41
2022-09-15T10:27:36.660Z,100265.28
2022-09-15T10:30:12.495Z,100259.19
2022-09-15T10:32:39.517Z,100257.97
2022-09-15T10:35:15.530Z,100255.63
2022-09-15T10:38:00.464Z,100252.25
2022-09-15T10:40:42.784Z,100248.19
2022-09-15T10:43:24.702Z,100250.53
2022-09-15T10:46:01.275Z,100249.13
2022-09-15T10:49:05.240Z,100244.19
2022-09-15T10:51:46.504Z,100248.13
2022-09-15T10:54:31.723Z,100254.16
2022-09-15T10:57:11.081Z,100260.19
2022-09-15T11:00:02.543Z,100256.19
2022-09-15T11:02:50.722Z,100264.19
2022-09-15T11:05:26.360Z,100261.31
2022-09-15T11:07:58.957Z,100275.81
2022-09-15T11:10:47.092Z,100282.34
2022-09-15T11:13:19.693Z,100283.28
2022-09-15T11:16:05.643Z,100279.81
2022-09-15T11:18:58.491Z,100280.53
2022-09-15T11:21:42.356Z,100275.88
2022-09-15T11:24:28.646Z,100287.28
2022-09-15T11:27:03.756Z,100265.81
2022-09-15T11:29:51.476Z,100266.69
2022-09-15T11:32:26.750Z,100275.00
2022-09-15T11:35:17.637Z,100268.09
2022-09-15T11:37:48.396Z,100267.50
2022-09-15T11:40:20.338Z,100271.19
2022-09-15T11:42:59.832Z,100270.38
2022-09-15T11:45:38.206Z,100268.97
2022-09-15T11:48:16.192Z,100264.69
2022-09-15T11:50:46.345Z,100272.88
2022-09-15T11:53:25.699Z,100272.00
2022-09-15T11:55:59.446Z,100277.63
2022-09-15T11:58:41.144Z,100279.53
2022-09-15T12:01:10.678Z,100276.13
2022-09-15T12:03:58.805Z,100275.13
2022-09-15T12:06:55.334Z,100278.88
2022-09-15T12:09:22.320Z,100276.63
2022-09-15T12:11:57.121Z,100275.09
2022-09-15T12:14:35.279Z,100276.50
2022-09-15T12:17:04.383Z,100278.84
2022-09-15T12:19:33.898Z,100273.25
2022-09-15T12:22:27.076Z,100274.31
2022-09-15T12:25:24.741Z,100263.41
2022-09-15T12:28:22.466Z,100275.28
2022-09-15T12:31:10.190Z,100282.28
2022-09-15T12:33:42.805Z,100273.25
2022-09-15T12:36:48.914Z,100277.28
2022-09-15T12:39:31.506Z,100280.94
2022-09-15T12:42:21.415Z,100282.56
2022-09-15T12:44:53.075Z,100285.41
2022-09-15T12:47:28.732Z,100277.50
2022-09-15T12:50:08.720Z,100285.16
2022-09-15T12:52:50.099Z,100296.97
2022-09-15T12:55:21.315Z,100295.69
2022-09-15T12:58:10.827Z,100303.41
2022-09-15T13:00:54.804Z,100306.56
2022-09-15T13:03:53.907Z,100319.78
2022-09-15T13:06:37.834Z,100328.41
2022-09-15T13:09:05.668Z,100334.97
2022-09-15T13:11:38.287Z,100339.94
2022-09-15T13:14:07.908Z,100332.38
2022-09-15T13:16:40.559Z,100337.22
2022-09-15T13:19:41.579Z,100328.41
2022-09-15T13:22:11.165Z,100317.25
2022-09-15T13:24:55.401Z,100318.31
2022-09-15T13:27:32.929Z,100312.44
2022-09-15T13:30:29.156Z,100303.72
2022-09-15T13:39:48.990Z,100306.59
2022-09-15T13:42:31.597Z,100299.06
2022-09-15T13:45:17.280Z,100292.81
2022-09-15T13:48:20.267Z,100294.06
2022-09-15T13:50:57.213Z,100287.00
2022-09-15T13:53:42.780Z,100284.94
2022-09-15T13:56:47.373Z,100281.84
2022-09-15T13:59:20.201Z,100292.69
2022-09-15T14:01:48.090Z,100288.31
2022-09-15T14:04:14.616Z,100284.34
2022-09-15T14:06:44.401Z,100285.06
2022-09-15T14:09:18.482Z,100292.16
2022-09-15T14:11:48.976Z,100292.69
2022-09-15T14:14:27.637Z,100297.53
2022-09-15T14:16:56.291Z,100286.25
2022-09-15T14:19:42.314Z,100291.16
2022-09-15T14:22:17.927Z,100302.31
2022-09-15T14:24:45.093Z,100306.81
2022-09-15T14:27:13.101Z,100308.41
2022-09-15T14:29:46.358Z,100313.03
2022-09-15T14:32:18.296Z,100334.13
2022-09-15T14:34:45.829Z,100341.69
2022-09-15T14:37:21.668Z,100334.84
2022-09-15T14:39:56.604Z,100320.66
2022-09-15T14:42:32.805Z,100322.56
2022-09-15T14:48:01.455Z,100307.31
2022-09-15T14:50:32.867Z,100306.72
2022-09-15T14:53:24.774Z,100302.63
2022-09-15T14:56:07.645Z,100304.03
2022-09-15T14:58:43.133Z,100302.91
2022-09-15T15:01:27.901Z,100305.09
2022-09-15T15:04:02.881Z,100293.00
2022-09-15T15:06:35.703Z,100305.63
2022-09-15T15:09:16.031Z,100290.28
2022-09-15T15:11:42.861Z,100296.06
2022-09-15T15:14:12.872Z,100293.03
2022-09-15T15:16:50.769Z,100295.25
2022-09-15T15:19:31.749Z,100290.84
2022-09-15T15:22:21.387Z,100295.50
2022-09-15T15:24:51.092Z,100291.63
2022-09-15T15:28:00.196Z,100294.63
2022-09-15T15:30:30.572Z,100289.16
2022-09-15T15:33:02.837Z,100299.03
2022-09-15T15:35:31.280Z,100296.00
2022-09-15T15:38:18.448Z,100295.19
2022-09-15T15:40:46.169Z,100290.25
2022-09-15T15:43:24.455Z,100297.41
2022-09-15T15:46:01.019Z,100294.59
2022-09-15T15:48:37.780Z,100289.66
2022-09-15T15:51:06.623Z,100295.94
2022-09-15T15:53:36.368Z,100298.38
2022-09-15T15:56:03.049Z,100292.22
2022-09-15T15:58:29.710Z,100296.06
2022-09-15T16:00:57.190Z,100295.38
2022-09-15T16:03:25.057Z,100292.06
2022-09-15T16:05:58.358Z,100294.56
2022-09-15T16:08:31.687Z,100299.81
2022-09-15T16:11:00.448Z,100289.59
2022-09-15T16:13:27.278Z,100292.38
2022-09-15T16:15:56.750Z,100298.22
2022-09-15T16:18:23.651Z,100299.91
2022-09-15T16:20:50.281Z,100295.50
2022-09-15T16:23:19.769Z,100296.72
2022-09-15T16:25:55.635Z,100301.94
2022-09-15T16:28:22.755Z,100300.59
2022-09-15T16:30:49.397Z,100311.91
2022-09-15T16:33:17.655Z,100302.03
2022-09-15T16:35:56.435Z,100305.63
2022-09-15T16:38:28.215Z,100298.50
2022-09-15T16:40:58.139Z,100300.16
2022-09-15T16:43:27.869Z,100306.22
2022-09-15T16:45:54.513Z,100314.97
2022-09-15T16:48:21.722Z,100296.91
2022-09-15T16:53:39.482Z,100308.16
2022-09-15T16:56:07.584Z,100310.63
2022-09-15T16:58:34.136Z,100306.78
2022-09-15T17:01:00.819Z,100306.25
2022-09-15T17:03:27.641Z,100308.72
2022-09-15T17:05:59.606Z,100309.28
2022-09-15T17:08:29.626Z,100309.81
2022-09-15T17:10:58.191Z,100311.44
2022-09-15T17:13:30.098Z,100305.34
2022-09-15T17:15:57.850Z,100308.94
2022-09-15T17:18:24.632Z,100306.72
2022-09-15T17:20:52.175Z,100310.56
2022-09-15T17:23:27.524Z,100302.03
2022-09-15T17:25:59.729Z,100303.41
2022-09-15T17:28:31.213Z,100305.06
2022-09-15T17:31:00.164Z,100302.03
2022-09-15T17:33:28.089Z,100300.09
2022-09-15T17:35:54.591Z,100302.03
2022-09-15T17:38:22.034Z,100301.19
2022-09-15T17:40:50.290Z,100308.00
2022-09-15T17:43:21.972Z,100306.56
2022-09-15T17:45:49.740Z,100302.75
2022-09-15T17:48:16.837Z,100315.91
2022-09-15T17:50:45.129Z,100323.63
2022-09-15T17:53:13.936Z,100310.25
2022-09-15T17:55:41.254Z,100312.13
2022-09-15T17:58:08.488Z,100305.53
2022-09-15T18:00:40.787Z,100316.47
2022-09-15T18:03:28.209Z,100315.84
2022-09-15T18:06:00.199Z,100305.38
2022-09-15T18:08:27.501Z,100305.88
2022-09-15T18:10:54.267Z,100312.91
2022-09-15T18:13:23.679Z,100312.28
2022-09-15T18:15:50.896Z,100303.75
2022-09-15T18:18:24.219Z,100299.31
2022-09-15T18:20:53.811Z,100303.88
2022-09-15T18:23:25.645Z,100297.56
2022-09-15T18:25:52.582Z,100300.53
2022-09-15T18:28:19.558Z,100300.56
2022-09-15T18:30:48.990Z,100297.91
2022-09-15T18:33:23.771Z,100301.19
2022-09-15T18:35:55.133Z,100309.13
2022-09-15T18:38:22.820Z,100304.50
2022-09-15T18:40:58.649Z,100312.75
2022-09-15T18:43:26.973Z,100311.97
2022-09-15T18:45:58.589Z,100315.06
2022-09-15T18:48:25.195Z,100317.25
2022-09-15T18:50:53.210Z,100320.03
2022-09-15T18:53:20.301Z,100323.66
2022-09-15T18:55:50.315Z,100313.50
2022-09-15T18:58:19.170Z,100317.34
2022-09-15T19:00:46.209Z,100317.59
2022-09-15T19:03:14.516Z,100327.69
2022-09-15T19:05:41.644Z,100325.28
2022-09-15T19:08:11.497Z,100318.59
2022-09-15T19:10:40.727Z,100324.19
2022-09-15T19:13:07.463Z,100322.53
2022-09-15T19:15:34.630Z,100328.47
2022-09-15T19:18:01.590Z,100334.75
2022-09-15T19:20:28.193Z,100343.22
2022-09-15T19:22:54.830Z,100333.91
2022-09-15T19:25:21.397Z,100346.06
2022-09-15T19:27:48.712Z,100355.13
2022-09-15T19:30:15.485Z,100347.19
2022-09-15T19:32:42.017Z,100334.91
2022-09-15T19:35:09.284Z,100338.41
2022-09-15T19:37:38.382Z,100339.50
2022-09-15T19:40:09.079Z,100342.66
2022-09-15T19:42:37.051Z,100338.22
2022-09-15T19:45:04.109Z,100339.25
2022-09-15T19:47:30.783Z,100343.00
2022-09-15T19:49:57.420Z,100343.13
2022-09-15T19:52:24.005Z,100351.16
2022-09-15T19:54:50.622Z,100343.72
2022-09-15T19:57:17.240Z,100349.47
2022-09-15T19:59:44.823Z,100344.19
2022-09-15T20:02:12.104Z,100356.16
2022-09-15T20:04:41.319Z,100351.16
2022-09-15T20:07:07.969Z,100348.47
2022-09-15T20:09:34.781Z,100348.91
2022-09-15T20:12:04.303Z,100362.19
2022-09-15T20:14:31.837Z,100360.28
2022-09-15T20:17:01.172Z,100361.31
2022-09-15T20:19:28.597Z,100357.94
2022-09-15T20:21:55.377Z,100356.22
2022-09-15T20:24:23.729Z,100357.03
2022-09-15T20:26:50.649Z,100364.09
2022-09-15T20:29:17.321Z,100361.03
2022-09-15T20:31:43.938Z,100359.44
2022-09-15T20:34:10.475Z,100362.44
2022-09-15T20:36:38.933Z,100358.06
2022-09-15T20:39:09.523Z,100364.69
2022-09-15T20:41:37.360Z,100355.84
2022-09-15T20:44:06.102Z,100356.28
2022-09-15T20:46:33.580Z,100356.63
2022-09-15T20:49:00.413Z,100364.63
2022-09-15T20:51:31.737Z,100364.22
2022-09-15T20:53:59.448Z,100371.56
2022-09-15T20:56:28.116Z,100373.47
2022-09-15T20:58:57.781Z,100399.84
2022-09-15T21:01:27.684Z,100389.72
2022-09-15T21:03:57.688Z,100382.41
2022-09-15T21:06:27.157Z,100371.63
2022-09-15T21:08:55.667Z,100370.06
2022-09-15T21:11:24.091Z,100369.28
2022-09-15T21:13:52.056Z,100370.38
2022-09-15T21:16:21.162Z,100363.97
2022-09-15T21:18:48.886Z,100364.97
2022-09-15T21:21:23.812Z,100361.63
2022-09-15T21:23:53.409Z,100367.91
2022-09-15T21:26:25.982Z,100356.31
2022-09-15T21:28:54.410Z,100364.03
2022-09-15T21:31:23.795Z,100367.63
2022-09-15T21:33:52.035Z,100366.25
2022-09-15T21:36:22.247Z,100360.38
2022-09-15T21:38:51.006Z,100353.06
2022-09-15T21:41:20.888Z,100354.63
2022-09-15T21:43:48.545Z,100359.75
2022-09-15T21:46:20.110Z,100355.16
2022-09-15T21:48:48.244Z,100357.03
2022-09-15T21:51:23.965Z,100361.50
2022-09-15T21:53:56.135Z,100358.22
2022-09-15T21:56:23.114Z,100357.94
2022-09-15T21:58:49.915Z,100363.06
2022-09-15T22:01:18.950Z,100356.81
2022-09-15T22:04:08.701Z,100369.50
2022-09-15T22:06:40.180Z,100366.63
2022-09-15T22:09:14.471Z,100367.19
2022-09-15T22:11:41.753Z,100375.97
2022-09-15T22:14:08.995Z,100377.44
2022-09-15T22:16:38.015Z,100374.47
2022-09-15T22:19:07.065Z,100373.47
2022-09-15T22:21:36.765Z,100367.34
2022-09-15T22:24:05.456Z,100365.69
2022-09-15T22:26:34.589Z,100354.84
2022-09-15T22:29:01.240Z,100358.59
2022-09-15T22:31:29.014Z,100366.13
2022-09-15T22:33:56.415Z,100371.25
2022-09-15T22:36:29.169Z,100365.81
2022-09-15T22:39:03.833Z,100362.25
2022-09-15T22:41:36.033Z,100367.53
2022-09-15T22:44:03.573Z,100365.22
2022-09-15T22:46:30.183Z,100361.09
2022-09-15T22:48:56.712Z,100365.13
2022-09-15T22:51:23.381Z,100362.91
2022-09-15T22:53:53.963Z,100359.25
2022-09-15T22:56:20.759Z,100365.72
2022-09-15T22:58:49.035Z,100355.97
2022-09-15T23:01:20.809Z,100351.69
2022-09-15T23:03:55.754Z,100362.06
2022-09-15T23:06:23.082Z,100353.56
2022-09-15T23:08:54.721Z,100351.50
2022-09-15T23:11:21.753Z,100358.63
2022-09-15T23:13:49.757Z,100357.78
2022-09-15T23:16:17.066Z,100367.63
2022-09-15T23:18:44.227Z,100376.47
2022-09-15T23:21:12.329Z,100360.59
2022-09-15T23:23:40.861Z,100353.50
2022-09-15T23:26:10.235Z,100363.72
2022-09-15T23:28:37.403Z,100359.25
2022-09-15T23:31:04.310Z,100353.25
2022-09-15T23:33:34.395Z,100357.53
2022-09-15T23:36:03.112Z,100352.56
2022-09-15T23:38:30.221Z,100357.44
2022-09-15T23:40:56.836Z,100354.72
2022-09-15T23:43:24.448Z,100355.22
2022-09-15T23:45:51.362Z,100353.31
2022-09-15T23:48:17.870Z,100350.81
2022-09-15T23:50:44.684Z,100359.69
2022-09-15T23:53:11.507Z,100351.97
2022-09-15T23:55:38.098Z,100353.97
2022-09-15T23:58:05.124Z,100352.56
